Time;durP1;ratioP1;P1;durP2;ratioP2;P2;SDS_P1;SDS_P2;PMS_P1;PMS_P2;Temp;Humidity;BMP_temperature;BMP_pressure;BME280_temperature;BME280_humidity;BME280_pressure;Samples;Min_cycle;Max_cycle;Signal;HPM_P1;HPM_P2
2022/10/20 00:04:31;;;;;;;;;;;;;;;5.05;100.00;99118.81;7397440;19;19933;-52
2022/10/20 00:10:24;;;;;;;;;;;;;;;5.01;100.00;99121.50;7397853;19;19925;-51
2022/10/20 00:13:08;;;;;;;;;;;;;;;4.91;100.00;99127.69;7396224;19;19948;-50
2022/10/20 00:21:51;;;;;;;;;;;;;;;4.97;100.00;99130.22;7401959;19;19986;-49
2022/10/20 00:27:27;;;;;;;;;;;;;;;4.57;100.00;99129.84;7402090;19;20216;-50
2022/10/20 00:33:09;;;;;;;;;;;;;;;4.74;100.00;99122.72;7396169;19;19918;-51
2022/10/20 00:35:40;;;;;;;;;;;;;;;4.31;100.00;99126.69;7399505;19;19919;-49
2022/10/20 00:41:16;;;;;;;;;;;;;;;4.69;100.00;99118.47;7396850;19;20005;-53
2022/10/20 00:46:52;;;;;;;;;;;;;;;4.77;100.00;99112.31;7399350;19;19949;-50
2022/10/20 00:58:05;;;;;;;;;;;;;;;3.96;100.00;99115.84;7401124;19;19928;-50
2022/10/20 01:03:52;;;;;;;;;;;;;;;3.79;100.00;99110.81;7395827;19;20057;-50
2022/10/20 01:09:59;;;;;;;;;;;;;;;4.06;100.00;99105.34;7396499;19;20249;-49
2022/10/20 01:18:31;;;;;;;;;;;;;;;3.89;100.00;99107.25;7404597;19;19932;-50
2022/10/20 01:27:40;;;;;;;;;;;;;;;4.28;100.00;99103.38;7404681;19;19986;-49
2022/10/20 01:30:24;;;;;;;;;;;;;;;4.05;100.00;99107.94;7399552;19;19922;-50
2022/10/20 01:35:40;;;;;;;;;;;;;;;3.54;100.00;99101.53;7403649;19;20308;-50
2022/10/20 01:38:26;;;;;;;;;;;;;;;3.65;100.00;99112.66;7399271;19;19950;-48
2022/10/20 01:44:11;;;;;;;;;;;;;;;3.95;100.00;99114.13;7399165;19;19915;-49
2022/10/20 01:47:32;;;;;;;;;;;;;;;4.30;100.00;99112.00;7398738;19;19921;-49
2022/10/20 01:53:06;;;;;;;;;;;;;;;3.98;100.00;99103.69;7406699;19;19918;-50
2022/10/20 02:11:09;;;;;;;;;;;;;;;3.29;100.00;99117.28;7401391;19;20337;-49
2022/10/20 02:25:43;;;;;;;;;;;;;;;3.38;100.00;99118.06;7400659;19;19930;-50
2022/10/20 02:31:38;;;;;;;;;;;;;;;3.33;100.00;99112.03;7401157;19;19922;-50
2022/10/20 02:37:20;;;;;;;;;;;;;;;3.13;100.00;99113.91;7399100;19;20322;-49
2022/10/20 02:42:53;;;;;;;;;;;;;;;3.09;100.00;99113.94;7404223;19;20307;-53
2022/10/20 02:48:34;;;;;;;;;;;;;;;3.66;100.00;99116.13;7405294;19;19918;-50
2022/10/20 02:54:04;;;;;;;;;;;;;;;3.50;100.00;99117.09;7403199;19;19910;-49
2022/10/20 02:59:49;;;;;;;;;;;;;;;3.29;100.00;99115.53;7399819;19;20000;-49
2022/10/20 03:05:31;;;;;;;;;;;;;;;3.47;100.00;99123.16;7399542;19;19914;-49
2022/10/20 03:14:26;;;;;;;;;;;;;;;3.39;100.00;99134.44;7403972;19;19936;-51
2022/10/20 03:25:37;;;;;;;;;;;;;;;3.51;100.00;99132.63;7398966;19;19950;-49
2022/10/20 03:40:11;;;;;;;;;;;;;;;2.84;100.00;99158.94;7398182;19;19929;-52
2022/10/20 03:49:09;;;;;;;;;;;;;;;2.87;100.00;99164.97;7398592;19;19935;-51
2022/10/20 03:54:51;;;;;;;;;;;;;;;3.05;100.00;99162.28;7401837;19;19924;-52
2022/10/20 03:57:25;;;;;;;;;;;;;;;3.37;100.00;99162.94;7397511;19;19927;-51
2022/10/20 04:03:03;;;;;;;;;;;;;;;3.46;100.00;99157.69;7397797;19;19975;-50
2022/10/20 04:08:43;;;;;;;;;;;;;;;3.43;100.00;99156.84;7401565;19;19914;-51
2022/10/20 04:17:35;;;;;;;;;;;;;;;3.16;100.00;99152.72;7396554;19;19937;-50
2022/10/20 04:28:46;;;;;;;;;;;;;;;2.35;100.00;99142.75;7402013;19;19944;-50
2022/10/20 04:31:23;;;;;;;;;;;;;;;2.98;100.00;99141.59;7398557;19;19918;-51
2022/10/20 04:33:53;;;;;;;;;;;;;;;2.97;100.00;99143.34;7396214;19;19915;-51
2022/10/20 04:36:22;;;;;;;;;;;;;;;2.91;100.00;99132.16;7396931;19;19927;-49
2022/10/20 04:42:03;;;;;;;;;;;;;;;2.85;100.00;99138.22;7397371;19;20093;-49
2022/10/20 04:44:36;;;;;;;;;;;;;;;2.39;100.00;99144.47;7391971;19;19994;-50
2022/10/20 04:47:06;;;;;;;;;;;;;;;2.44;100.00;99147.03;7390992;19;20312;-50
2022/10/20 04:49:35;;;;;;;;;;;;;;;2.39;100.00;99139.28;7399442;19;20229;-51
2022/10/20 04:55:17;;;;;;;;;;;;;;;2.61;100.00;99133.19;7407877;19;19922;-49
2022/10/20 04:57:47;;;;;;;;;;;;;;;2.59;100.00;99142.66;7390065;19;20225;-48
2022/10/20 05:00:19;;;;;;;;;;;;;;;2.21;100.00;99131.59;7393796;19;19930;-50
2022/10/20 05:02:48;;;;;;;;;;;;;;;2.44;100.00;99141.88;7391498;19;19907;-53
2022/10/20 05:05:17;;;;;;;;;;;;;;;2.78;100.00;99133.94;7394267;19;20339;-52
2022/10/20 05:07:46;;;;;;;;;;;;;;;2.44;100.00;99142.72;7393327;19;19948;-49
2022/10/20 05:10:18;;;;;;;;;;;;;;;2.74;100.00;99139.16;7391008;19;20292;-48
2022/10/20 05:12:47;;;;;;;;;;;;;;;2.49;100.00;99146.16;7394080;19;19939;-52
2022/10/20 05:15:16;;;;;;;;;;;;;;;2.55;100.00;99143.53;7393163;19;20308;-55
2022/10/20 05:17:48;;;;;;;;;;;;;;;2.14;100.00;99144.50;7390521;19;19922;-50
2022/10/20 05:20:17;;;;;;;;;;;;;;;2.42;100.00;99146.19;7392738;19;19974;-50
2022/10/20 05:22:47;;;;;;;;;;;;;;;3.17;100.00;99138.91;7390155;19;19915;-54
2022/10/20 05:25:16;;;;;;;;;;;;;;;2.68;100.00;99142.63;7391921;19;20262;-48
2022/10/20 05:27:45;;;;;;;;;;;;;;;2.59;100.00;99140.06;7390993;19;19918;-50
2022/10/20 05:30:14;;;;;;;;;;;;;;;2.65;100.00;99137.47;7393212;19;19990;-64
2022/10/20 05:32:44;;;;;;;;;;;;;;;2.56;100.00;99132.31;7389790;19;19922;-58
2022/10/20 05:35:16;;;;;;;;;;;;;;;2.72;100.00;99133.13;7390521;19;20455;-51
2022/10/20 05:37:45;;;;;;;;;;;;;;;2.82;100.00;99132.22;7389771;19;19919;-67
2022/10/20 05:40:15;;;;;;;;;;;;;;;2.84;100.00;99133.06;7392114;19;19919;-49
2022/10/20 05:42:44;;;;;;;;;;;;;;;3.02;100.00;99132.97;7393063;19;19982;-50
2022/10/20 05:45:13;;;;;;;;;;;;;;;2.76;100.00;99134.81;7391176;19;19924;-67
2022/10/20 05:47:42;;;;;;;;;;;;;;;2.97;100.00;99133.00;7389597;19;20544;-53
2022/10/20 05:50:13;;;;;;;;;;;;;;;2.97;100.00;99140.78;7391414;19;20249;-56
2022/10/20 05:52:45;;;;;;;;;;;;;;;2.66;100.00;99143.50;7387087;19;19918;-65
2022/10/20 05:55:16;;;;;;;;;;;;;;;2.77;100.00;99152.06;7399512;19;19935;-49
2022/10/20 05:57:46;;;;;;;;;;;;;;;3.06;100.00;99152.78;7404081;19;20229;-49
2022/10/20 06:00:17;;;;;;;;;;;;;;;3.33;100.00;99152.63;7398211;19;19939;-56
2022/10/20 06:02:47;;;;;;;;;;;;;;;3.40;100.00;99152.56;7387431;19;19911;-51
2022/10/20 06:05:16;;;;;;;;;;;;;;;3.53;100.00;99151.63;7393499;19;19922;-51
2022/10/20 06:07:48;;;;;;;;;;;;;;;3.76;100.00;99157.47;7397391;19;19978;-50
2022/10/20 06:10:18;;;;;;;;;;;;;;;3.82;100.00;99148.78;7389014;19;19935;-50
2022/10/20 06:12:47;;;;;;;;;;;;;;;3.90;100.00;99155.63;7391821;19;19919;-52
2022/10/20 06:15:16;;;;;;;;;;;;;;;3.58;100.00;99156.72;7386913;19;19970;-53
2022/10/20 06:17:48;;;;;;;;;;;;;;;3.95;100.00;99159.00;7390029;19;19931;-53
2022/10/20 06:20:17;;;;;;;;;;;;;;;4.02;100.00;99160.69;7391511;19;19911;-51
2022/10/20 06:22:49;;;;;;;;;;;;;;;4.22;100.00;99153.56;7383069;19;19919;-55
2022/10/20 06:25:19;;;;;;;;;;;;;;;3.93;100.00;99165.09;7392232;19;20359;-53
2022/10/20 06:27:48;;;;;;;;;;;;;;;4.12;100.00;99169.22;7388764;19;19936;-54
2022/10/20 06:30:17;;;;;;;;;;;;;;;4.34;100.00;99167.28;7385677;19;19914;-55
2022/10/20 06:32:46;;;;;;;;;;;;;;;4.42;100.00;99168.91;7389497;19;19915;-58
2022/10/20 06:35:16;;;;;;;;;;;;;;;4.54;100.00;99176.59;7389895;19;20360;-51
2022/10/20 06:37:45;;;;;;;;;;;;;;;4.64;100.00;99174.75;7384240;19;19906;-53
2022/10/20 06:40:17;;;;;;;;;;;;;;;4.72;100.00;99178.09;7390306;19;19915;-54
2022/10/20 06:42:47;;;;;;;;;;;;;;;4.87;100.00;99175.31;7394301;19;19919;-51
2022/10/20 06:45:17;;;;;;;;;;;;;;;4.95;100.00;99178.69;7382714;19;19910;-53
2022/10/20 06:47:46;;;;;;;;;;;;;;;5.03;100.00;99179.44;7388650;19;19918;-55
2022/10/20 06:50:16;;;;;;;;;;;;;;;5.08;100.00;99178.50;7391210;19;19915;-54
2022/10/20 06:52:45;;;;;;;;;;;;;;;5.26;100.00;99182.59;7383182;19;19921;-55
2022/10/20 06:55:17;;;;;;;;;;;;;;;5.34;100.00;99183.38;7389860;19;20333;-51
2022/10/20 06:57:46;;;;;;;;;;;;;;;5.40;100.00;99183.25;7388982;19;19923;-56
2022/10/20 07:00:16;;;;;;;;;;;;;;;5.56;100.00;99184.78;7385407;19;20252;-51
2022/10/20 07:02:45;;;;;;;;;;;;;;;5.56;100.00;99182.16;7389312;19;19922;-53
2022/10/20 07:05:14;;;;;;;;;;;;;;;5.61;100.00;99188.16;7390190;19;19995;-53
2022/10/20 07:07:43;;;;;;;;;;;;;;;5.85;100.00;99182.56;7383412;19;20232;-56
2022/10/20 07:10:12;;;;;;;;;;;;;;;5.97;100.00;99175.41;7389143;19;19960;-54
2022/10/20 07:12:44;;;;;;;;;;;;;;;5.90;100.00;99185.97;7381638;19;19915;-56
2022/10/20 07:15:13;;;;;;;;;;;;;;;5.94;100.00;99185.88;7383657;19;19947;-55
2022/10/20 07:17:42;;;;;;;;;;;;;;;5.98;100.00;99178.88;7387706;19;20213;-55
2022/10/20 07:20:12;;;;;;;;;;;;;;;6.25;100.00;99181.00;7387792;19;19995;-55
2022/10/20 07:22:41;;;;;;;;;;;;;;;6.08;100.00;99181.28;7383736;19;19914;-55
2022/10/20 07:25:11;;;;;;;;;;;;;;;6.15;100.00;99184.66;7387968;19;20322;-54
2022/10/20 07:27:40;;;;;;;;;;;;;;;6.19;100.00;99184.56;7388779;19;19919;-57
2022/10/20 07:30:12;;;;;;;;;;;;;;;6.44;100.00;99193.69;7384261;19;19933;-56
2022/10/20 07:32:42;;;;;;;;;;;;;;;6.32;100.00;99199.13;7388165;19;19914;-56
2022/10/20 07:35:11;;;;;;;;;;;;;;;6.50;100.00;99190.13;7386668;19;19921;-60
2022/10/20 07:37:40;;;;;;;;;;;;;;;6.45;100.00;99192.78;7382410;19;19915;-55
2022/10/20 07:40:10;;;;;;;;;;;;;;;6.41;100.00;99185.94;7389799;19;19924;-55
2022/10/20 07:42:39;;;;;;;;;;;;;;;6.29;100.00;99183.53;7388107;19;20231;-53
2022/10/20 07:45:09;;;;;;;;;;;;;;;6.39;100.00;99187.72;7381861;19;19914;-53
2022/10/20 07:47:41;;;;;;;;;;;;;;;6.59;100.00;99189.97;7388042;19;19915;-55
2022/10/20 07:50:11;;;;;;;;;;;;;;;6.61;100.00;99183.84;7388267;19;19930;-52
2022/10/20 07:52:41;;;;;;;;;;;;;;;6.73;100.00;99190.53;7379848;19;19940;-58
2022/10/20 07:55:10;;;;;;;;;;;;;;;6.52;100.00;99193.56;7386645;19;19923;-55
2022/10/20 07:57:39;;;;;;;;;;;;;;;6.78;100.00;99192.16;7387748;19;20328;-54
2022/10/20 08:00:09;;;;;;;;;;;;;;;6.79;100.00;99193.91;7383078;19;19915;-55
2022/10/20 08:02:44;;;;;;;;;;;;;;;6.71;100.00;99187.13;7388481;19;19940;-54
2022/10/20 08:05:13;;;;;;;;;;;;;;;6.84;100.00;99192.06;7388470;19;19915;-52
2022/10/20 08:07:43;;;;;;;;;;;;;;;6.76;100.00;99188.75;7381743;19;19911;-52
2022/10/20 08:10:12;;;;;;;;;;;;;;;6.73;100.00;99180.13;7387518;19;19918;-56
2022/10/20 08:12:41;;;;;;;;;;;;;;;6.90;100.00;99183.25;7387316;19;19915;-53
2022/10/20 08:15:11;;;;;;;;;;;;;;;6.98;100.00;99184.81;7382089;19;19930;-57
2022/10/20 08:17:40;;;;;;;;;;;;;;;7.19;100.00;99184.34;7384404;19;19919;-55
2022/10/20 08:20:12;;;;;;;;;;;;;;;6.92;100.00;99184.94;7387820;19;19928;-53
2022/10/20 08:22:41;;;;;;;;;;;;;;;7.01;100.00;99183.91;7382989;19;19925;-51
2022/10/20 08:25:12;;;;;;;;;;;;;;;7.32;100.00;99179.75;7393978;19;20239;-52
2022/10/20 08:27:42;;;;;;;;;;;;;;;7.08;100.00;99180.28;7393461;19;19951;-51
2022/10/20 08:30:12;;;;;;;;;;;;;;;7.13;100.00;99181.03;7389639;19;19920;-56
2022/10/20 08:32:41;;;;;;;;;;;;;;;7.53;100.00;99179.28;7392096;19;20006;-55
2022/10/20 08:35:13;;;;;;;;;;;;;;;7.29;100.00;99179.84;7394736;19;19927;-53
2022/10/20 08:37:42;;;;;;;;;;;;;;;7.36;100.00;99178.78;7390400;19;19974;-55
2022/10/20 08:40:15;;;;;;;;;;;;;;;7.23;100.00;99177.34;7393964;19;19915;-55
2022/10/20 08:42:45;;;;;;;;;;;;;;;7.66;100.00;99178.13;7393497;19;19944;-66
2022/10/20 08:45:17;;;;;;;;;;;;;;;7.53;100.00;99184.50;7393813;19;20523;-53
2022/10/20 08:47:47;;;;;;;;;;;;;;;7.38;100.00;99184.84;7393736;19;19935;-57
2022/10/20 08:50:20;;;;;;;;;;;;;;;7.65;100.00;99191.19;7389610;19;19915;-57
2022/10/20 08:52:53;;;;;;;;;;;;;;;7.77;100.00;99178.72;7384984;19;19925;-55
2022/10/20 08:55:26;;;;;;;;;;;;;;;7.80;100.00;99181.22;7390313;19;19919;-56
2022/10/20 08:57:57;;;;;;;;;;;;;;;7.42;100.00;99182.13;7386472;19;19947;-54
2022/10/20 09:00:29;;;;;;;;;;;;;;;7.61;100.00;99182.56;7393386;19;19943;-56
2022/10/20 09:03:04;;;;;;;;;;;;;;;7.83;100.00;99177.72;7392087;19;19939;-54
2022/10/20 09:05:37;;;;;;;;;;;;;;;7.74;100.00;99177.91;7389039;19;19923;-53
2022/10/20 09:08:06;;;;;;;;;;;;;;;8.26;100.00;99167.91;7392374;19;19915;-55
2022/10/20 09:10:37;;;;;;;;;;;;;;;8.12;100.00;99176.09;7386522;19;19911;-64
2022/10/20 09:13:11;;;;;;;;;;;;;;;8.37;100.00;99171.97;7392412;19;19911;-55
2022/10/20 09:15:41;;;;;;;;;;;;;;;8.25;100.00;99169.69;7391034;19;20020;-56
2022/10/20 09:18:14;;;;;;;;;;;;;;;8.14;100.00;99179.53;7386982;19;19942;-53
2022/10/20 09:20:49;;;;;;;;;;;;;;;8.11;100.00;99179.59;7392947;19;19925;-53
2022/10/20 09:23:20;;;;;;;;;;;;;;;8.20;100.00;99174.16;7391570;19;19914;-53
2022/10/20 09:26:00;;;;;;;;;;;;;;;8.21;100.00;99175.88;7385498;19;20224;-54
2022/10/20 09:28:31;;;;;;;;;;;;;;;8.16;100.00;99182.13;7387209;19;19918;-54
2022/10/20 09:31:01;;;;;;;;;;;;;;;8.53;100.00;99175.88;7385491;19;19922;-55
2022/10/20 09:33:31;;;;;;;;;;;;;;;8.43;100.00;99179.66;7394848;19;19987;-53
2022/10/20 09:39:21;;;;;;;;;;;;;;;8.66;100.00;99172.06;7394736;19;19922;-54
2022/10/20 09:41:52;;;;;;;;;;;;;;;8.51;100.00;99180.31;7385505;19;20328;-52
2022/10/20 09:44:24;;;;;;;;;;;;;;;8.28;100.00;99173.97;7389230;19;20307;-56
2022/10/20 09:46:54;;;;;;;;;;;;;;;8.30;100.00;99174.75;7387632;19;19922;-58
2022/10/20 09:49:25;;;;;;;;;;;;;;;9.06;100.00;99169.19;7392598;19;20567;-54
2022/10/20 09:51:55;;;;;;;;;;;;;;;8.82;100.00;99164.66;7392116;19;19919;-50
2022/10/20 09:54:28;;;;;;;;;;;;;;;8.75;100.00;99160.53;7390352;19;19964;-57
2022/10/20 09:57:05;;;;;;;;;;;;;;;8.67;100.00;99163.31;7392616;19;20272;-53
2022/10/20 09:59:36;;;;;;;;;;;;;;;8.56;100.00;99164.50;7391772;19;20242;-54
2022/10/20 10:02:06;;;;;;;;;;;;;;;9.02;100.00;99157.13;7388420;19;20247;-54
2022/10/20 10:04:36;;;;;;;;;;;;;;;8.64;100.00;99157.31;7391012;19;19915;-53
2022/10/20 10:07:06;;;;;;;;;;;;;;;8.71;100.00;99154.53;7390662;19;19918;-54
2022/10/20 10:09:39;;;;;;;;;;;;;;;8.64;100.00;99158.16;7384430;19;19990;-51
2022/10/20 10:12:20;;;;;;;;;;;;;;;9.03;100.00;99156.22;7391807;19;20222;-53
2022/10/20 10:14:52;;;;;;;;;;;;;;;9.29;100.00;99141.47;7385077;19;19919;-59
2022/10/20 10:17:31;;;;;;;;;;;;;;;8.48;100.00;99149.03;7393718;19;19927;-64
2022/10/20 10:20:00;;;;;;;;;;;;;;;8.62;100.00;99149.53;7388010;19;19925;-51
2022/10/20 10:22:29;;;;;;;;;;;;;;;8.45;100.00;99162.19;7384843;19;19939;-54
2022/10/20 10:25:03;;;;;;;;;;;;;;;8.63;100.00;99156.47;7388375;19;20427;-56
2022/10/20 10:27:33;;;;;;;;;;;;;;;9.04;100.00;99148.34;7385486;19;20328;-58
2022/10/20 10:30:26;;;;;;;;;;;;;;;9.10;100.00;99147.31;7383607;19;20417;-50
2022/10/20 10:32:59;;;;;;;;;;;;;;;8.79;100.00;99144.72;7379578;19;19940;-59
2022/10/20 10:35:31;;;;;;;;;;;;;;;8.56;100.00;99146.22;7387467;19;19922;-55
2022/10/20 10:38:00;;;;;;;;;;;;;;;8.57;100.00;99140.13;7385382;19;19911;-51
2022/10/20 10:40:37;;;;;;;;;;;;;;;9.02;100.00;99146.69;7382959;19;20245;-52
2022/10/20 10:43:13;;;;;;;;;;;;;;;9.04;100.00;99134.41;7390168;19;19915;-50
2022/10/20 10:45:58;;;;;;;;;;;;;;;9.13;100.00;99131.53;7398775;19;20343;-53
2022/10/20 10:54:43;;;;;;;;;;;;;;;9.06;100.00;99127.38;7400327;19;19922;-51
2022/10/20 10:57:20;;;;;;;;;;;;;;;8.96;100.00;99115.47;7397759;19;19951;-54
2022/10/20 11:15:54;;;;;;;;;;;;;;;9.35;100.00;99102.06;7396087;19;19942;-50
2022/10/20 11:30:36;;;;;;;;;;;;;;;9.99;100.00;99082.53;7395526;19;19953;-51
2022/10/20 11:36:03;;;;;;;;;;;;;;;9.55;100.00;99081.38;7395208;19;19933;-50
2022/10/20 12:10:50;;;;;;;;;;;;;;;9.61;100.00;99034.13;7389729;19;19931;-51
2022/10/20 12:20:02;;;;;;;;;;;;;;;9.75;100.00;99034.47;7397122;19;19932;-50
2022/10/20 12:25:42;;;;;;;;;;;;;;;9.49;100.00;99015.34;7392110;19;19918;-53
2022/10/20 12:34:48;;;;;;;;;;;;;;;9.57;100.00;99011.56;7402127;19;19921;-54
2022/10/20 12:37:19;;;;;;;;;;;;;;;9.82;100.00;99003.75;7396589;19;20324;-51
2022/10/20 12:39:57;;;;;;;;;;;;;;;9.48;100.00;99004.03;7396683;19;19956;-50
2022/10/20 12:42:33;;;;;;;;;;;;;;;9.65;100.00;98999.09;7401012;19;19915;-50
2022/10/20 12:54:41;;;;;;;;;;;;;;;9.56;100.00;98988.09;7401187;19;19939;-52
2022/10/20 13:25:41;;;;;;;;;;;;;;;9.91;100.00;98975.50;7386356;19;19993;-51
2022/10/20 13:28:22;;;;;;;;;;;;;;;9.67;100.00;98978.97;7388142;19;19919;-51
2022/10/20 13:31:03;;;;;;;;;;;;;;;9.57;100.00;98969.72;7388816;19;19923;-53
2022/10/20 13:33:37;;;;;;;;;;;;;;;9.60;100.00;98967.00;7391762;19;19944;-53
2022/10/20 13:36:10;;;;;;;;;;;;;;;9.50;100.00;98968.25;7393092;19;20413;-50
2022/10/20 13:38:45;;;;;;;;;;;;;;;9.76;100.00;98959.47;7389412;19;19907;-49
2022/10/20 13:41:21;;;;;;;;;;;;;;;9.72;100.00;98968.34;7387108;19;20474;-51
2022/10/20 13:43:57;;;;;;;;;;;;;;;9.42;100.00;98967.63;7393286;19;19979;-50
2022/10/20 13:46:41;;;;;;;;;;;;;;;9.60;100.00;98961.78;7390173;19;19907;-65
2022/10/20 13:49:18;;;;;;;;;;;;;;;9.92;100.00;98952.78;7393651;19;19915;-50
2022/10/20 13:51:50;;;;;;;;;;;;;;;9.77;100.00;98953.34;7391558;19;19923;-67
2022/10/20 13:54:23;;;;;;;;;;;;;;;9.65;100.00;98953.78;7387451;19;19982;-50
2022/10/20 13:56:53;;;;;;;;;;;;;;;9.34;100.00;98958.34;7396655;19;19947;-51
2022/10/20 13:59:40;;;;;;;;;;;;;;;9.55;100.00;98950.63;7396017;19;19926;-50
2022/10/20 14:02:24;;;;;;;;;;;;;;;9.47;100.00;98942.19;7395340;19;19936;-53
2022/10/20 14:05:05;;;;;;;;;;;;;;;9.44;100.00;98942.28;7395140;19;19930;-52
2022/10/20 14:07:39;;;;;;;;;;;;;;;9.46;100.00;98939.63;7400919;19;19929;-54
2022/10/20 14:10:09;;;;;;;;;;;;;;;9.58;100.00;98932.22;7400175;19;20274;-50
2022/10/20 14:15:48;;;;;;;;;;;;;;;9.24;100.00;98930.78;7401178;19;20335;-50
2022/10/20 14:21:43;;;;;;;;;;;;;;;9.56;100.00;98926.16;7400332;19;20244;-51
2022/10/20 14:30:17;;;;;;;;;;;;;;;9.26;100.00;98916.75;7400858;19;19907;-50
2022/10/20 14:45:40;;;;;;;;;;;;;;;9.15;100.00;98913.66;7396813;19;19925;-52
2022/10/20 15:00:47;;;;;;;;;;;;;;;9.04;100.00;98905.31;7398777;19;19951;-50
2022/10/20 15:03:17;;;;;;;;;;;;;;;9.04;100.00;98909.69;7398482;19;20184;-50
2022/10/20 15:09:00;;;;;;;;;;;;;;;8.69;100.00;98902.97;7404625;19;19943;-52
2022/10/20 15:14:44;;;;;;;;;;;;;;;8.41;100.00;98909.94;7399295;19;19917;-49
2022/10/20 15:23:40;;;;;;;;;;;;;;;8.44;100.00;98901.16;7401620;19;19921;-53
2022/10/20 15:26:12;;;;;;;;;;;;;;;8.17;100.00;98900.22;7389427;19;19926;-50
2022/10/20 15:28:45;;;;;;;;;;;;;;;8.03;100.00;98897.19;7384568;19;19941;-49
2022/10/20 15:31:19;;;;;;;;;;;;;;;8.01;100.00;98893.75;7383927;19;19936;-66
2022/10/20 15:33:48;;;;;;;;;;;;;;;7.92;100.00;98899.25;7385961;19;19911;-57
2022/10/20 15:36:20;;;;;;;;;;;;;;;7.87;100.00;98892.47;7388470;19;19911;-54
2022/10/20 15:38:52;;;;;;;;;;;;;;;7.80;100.00;98890.91;7384807;19;19919;-60
2022/10/20 15:41:23;;;;;;;;;;;;;;;7.75;100.00;98885.84;7386366;19;20358;-51
2022/10/20 15:43:53;;;;;;;;;;;;;;;7.51;100.00;98886.53;7388825;19;19915;-54
2022/10/20 15:46:22;;;;;;;;;;;;;;;7.46;100.00;98877.97;7382566;19;19926;-58
2022/10/20 15:48:52;;;;;;;;;;;;;;;7.41;100.00;98878.06;7386082;19;20324;-53
2022/10/20 15:51:27;;;;;;;;;;;;;;;7.42;100.00;98881.53;7382237;19;21947;-54
2022/10/20 15:54:00;;;;;;;;;;;;;;;7.34;100.00;98886.13;7381576;19;19958;-59
2022/10/20 15:56:29;;;;;;;;;;;;;;;7.21;100.00;98884.72;7402111;19;19925;-50
2022/10/20 15:58:58;;;;;;;;;;;;;;;6.94;100.00;98875.00;7398754;19;19922;-52
2022/10/20 16:01:28;;;;;;;;;;;;;;;6.96;100.00;98884.50;7384324;19;19971;-62
2022/10/20 16:03:58;;;;;;;;;;;;;;;6.88;100.00;98878.63;7388164;19;20203;-50
2022/10/20 16:06:27;;;;;;;;;;;;;;;6.88;100.00;98882.97;7385005;19;19927;-57
2022/10/20 16:08:59;;;;;;;;;;;;;;;6.82;100.00;98885.75;7383951;19;19933;-51
2022/10/20 16:11:28;;;;;;;;;;;;;;;6.80;100.00;98880.56;7386884;19;19914;-62
2022/10/20 16:13:58;;;;;;;;;;;;;;;6.75;100.00;98885.03;7384330;19;19936;-54
2022/10/20 16:16:27;;;;;;;;;;;;;;;6.75;100.00;98886.78;7384026;19;20835;-57
2022/10/20 16:18:57;;;;;;;;;;;;;;;6.88;100.00;98890.78;7385855;19;20304;-52
2022/10/20 16:21:26;;;;;;;;;;;;;;;6.73;100.00;98880.75;7384260;19;19921;-52
2022/10/20 16:23:55;;;;;;;;;;;;;;;6.64;100.00;98875.78;7383867;19;19911;-53
2022/10/20 16:26:27;;;;;;;;;;;;;;;6.48;100.00;98890.03;7385063;19;19928;-54
2022/10/20 16:28:57;;;;;;;;;;;;;;;6.50;100.00;98878.72;7384360;19;20298;-50
2022/10/20 16:31:28;;;;;;;;;;;;;;;6.54;100.00;98879.47;7383507;19;19914;-53
2022/10/20 16:34:00;;;;;;;;;;;;;;;6.36;100.00;98878.16;7386092;19;19932;-52
2022/10/20 16:36:30;;;;;;;;;;;;;;;6.46;100.00;98876.19;7383476;19;20251;-66
2022/10/20 16:38:59;;;;;;;;;;;;;;;6.29;100.00;98886.97;7387285;19;20877;-51
2022/10/20 16:41:31;;;;;;;;;;;;;;;6.25;100.00;98884.44;7383002;19;19918;-51
2022/10/20 16:44:01;;;;;;;;;;;;;;;6.22;100.00;98882.78;7386345;19;19922;-54
2022/10/20 16:46:30;;;;;;;;;;;;;;;6.36;100.00;98879.91;7393763;19;20409;-50
2022/10/20 16:48:59;;;;;;;;;;;;;;;6.13;100.00;98876.94;7391158;19;19934;-50
2022/10/20 16:51:29;;;;;;;;;;;;;;;6.35;100.00;98873.88;7391317;19;19914;-51
2022/10/20 16:53:59;;;;;;;;;;;;;;;6.31;100.00;98876.56;7392025;19;19923;-53
2022/10/20 16:56:28;;;;;;;;;;;;;;;6.32;100.00;98884.34;7393160;19;19914;-54
2022/10/20 16:59:00;;;;;;;;;;;;;;;6.32;100.00;98881.72;7389545;19;20232;-58
2022/10/20 17:01:30;;;;;;;;;;;;;;;6.25;100.00;98881.84;7390920;19;19930;-52
2022/10/20 17:03:59;;;;;;;;;;;;;;;6.15;100.00;98876.00;7393327;19;19918;-56
2022/10/20 17:06:29;;;;;;;;;;;;;;;6.29;100.00;98883.50;7386429;19;19930;-61
2022/10/20 17:09:00;;;;;;;;;;;;;;;6.41;100.00;98878.91;7392281;19;19921;-50
2022/10/20 17:11:30;;;;;;;;;;;;;;;6.24;100.00;98878.41;7395024;19;19926;-49
2022/10/20 17:14:03;;;;;;;;;;;;;;;6.01;100.00;98882.41;7394115;19;19919;-49
2022/10/20 17:16:36;;;;;;;;;;;;;;;6.17;100.00;98889.84;7399629;19;19922;-51
2022/10/20 17:19:06;;;;;;;;;;;;;;;6.19;100.00;98877.66;7397075;19;19923;-49
2022/10/20 17:21:41;;;;;;;;;;;;;;;5.97;100.00;98886.81;7393190;19;20269;-50
2022/10/20 17:24:14;;;;;;;;;;;;;;;6.31;100.00;98887.84;7399601;19;20314;-52
2022/10/20 17:26:50;;;;;;;;;;;;;;;6.33;100.00;98885.19;7395357;19;19918;-51
2022/10/20 17:29:22;;;;;;;;;;;;;;;6.42;100.00;98887.56;7406609;19;19911;-50
2022/10/20 17:34:53;;;;;;;;;;;;;;;6.10;100.00;98879.59;7402814;19;19946;-50
2022/10/20 17:37:39;;;;;;;;;;;;;;;6.24;100.00;98885.34;7403510;19;19931;-50
2022/10/20 17:40:09;;;;;;;;;;;;;;;6.26;100.00;98888.78;7400146;19;20323;-50
2022/10/20 17:42:39;;;;;;;;;;;;;;;6.18;100.00;98881.16;7403695;19;19911;-55
2022/10/20 17:45:12;;;;;;;;;;;;;;;6.07;100.00;98880.53;7385629;19;20018;-50
2022/10/20 17:47:41;;;;;;;;;;;;;;;6.08;100.00;98881.38;7396622;19;19922;-49
2022/10/20 17:50:16;;;;;;;;;;;;;;;5.91;100.00;98873.09;7387020;19;19922;-57
2022/10/20 17:52:46;;;;;;;;;;;;;;;5.95;100.00;98874.72;7402408;19;20323;-51
2022/10/20 17:55:15;;;;;;;;;;;;;;;5.81;100.00;98874.16;7402085;19;19915;-51
2022/10/20 18:01:13;;;;;;;;;;;;;;;5.68;100.00;98880.50;7404335;19;20287;-51
2022/10/20 18:06:54;;;;;;;;;;;;;;;5.91;100.00;98871.34;7402082;19;19945;-50
2022/10/20 18:12:37;;;;;;;;;;;;;;;5.76;100.00;98869.06;7402132;19;19918;-48
2022/10/20 18:15:07;;;;;;;;;;;;;;;5.97;100.00;98870.38;7401457;19;19911;-49
2022/10/20 18:17:40;;;;;;;;;;;;;;;5.79;100.00;98862.94;7401138;19;19918;-50
2022/10/20 18:20:10;;;;;;;;;;;;;;;5.93;100.00;98866.13;7401152;19;19934;-49
2022/10/20 18:25:41;;;;;;;;;;;;;;;5.82;100.00;98849.91;7401488;19;19911;-50
2022/10/20 18:28:11;;;;;;;;;;;;;;;5.72;100.00;98854.44;7398883;19;19986;-50
2022/10/20 18:36:40;;;;;;;;;;;;;;;5.49;100.00;98864.41;7404994;19;19951;-50
2022/10/20 18:48:24;;;;;;;;;;;;;;;5.13;100.00;98851.28;7403125;19;19918;-51
2022/10/20 18:54:08;;;;;;;;;;;;;;;4.95;100.00;98852.47;7399824;19;19997;-49
2022/10/20 18:56:38;;;;;;;;;;;;;;;4.84;100.00;98848.34;7400291;19;19915;-49
2022/10/20 19:01:50;;;;;;;;;;;;;;;4.98;100.00;98856.75;7398882;19;19915;-48
2022/10/20 19:13:35;;;;;;;;;;;;;;;4.63;100.00;98853.91;7402828;19;19931;-48
2022/10/20 19:25:17;;;;;;;;;;;;;;;4.62;100.00;98839.22;7400611;19;20013;-49
2022/10/20 19:27:46;;;;;;;;;;;;;;;4.74;100.00;98841.59;7395605;19;19979;-50
2022/10/20 19:33:12;;;;;;;;;;;;;;;4.67;100.00;98829.59;7398247;19;19914;-50
2022/10/20 19:36:11;;;;;;;;;;;;;;;4.66;100.00;98835.69;7398752;19;19982;-51
2022/10/20 19:41:35;;;;;;;;;;;;;;;4.60;100.00;98820.25;7319604;19;19919;-66
2022/10/20 19:44:05;;;;;;;;;;;;;;;4.55;100.00;98828.09;7377933;19;20299;-53
2022/10/20 19:46:34;;;;;;;;;;;;;;;4.57;100.00;98823.72;7386128;19;20358;-50
2022/10/20 19:49:06;;;;;;;;;;;;;;;4.66;100.00;98827.91;7378538;19;20287;-62
2022/10/20 19:51:36;;;;;;;;;;;;;;;4.55;100.00;98828.09;7382936;19;20319;-50
2022/10/20 19:54:07;;;;;;;;;;;;;;;4.63;100.00;98822.75;7381089;19;19941;-52
2022/10/20 19:56:37;;;;;;;;;;;;;;;4.33;100.00;98825.88;7378162;19;19919;-63
2022/10/20 19:59:10;;;;;;;;;;;;;;;4.39;100.00;98820.59;7387113;19;19910;-53
2022/10/20 20:01:39;;;;;;;;;;;;;;;4.45;100.00;98823.06;7383724;19;20327;-48
2022/10/20 20:04:12;;;;;;;;;;;;;;;4.50;100.00;98827.28;7379955;19;19923;-58
2022/10/20 20:06:41;;;;;;;;;;;;;;;4.18;100.00;98814.84;7384426;19;20370;-50